sensor_id;sensor_type;location;lat;lon;timestamp;P1;durP1;ratioP1;P2;durP2;ratioP2
51654;SDS011;37732;53.106;7.030;2022-12-07T00:01:20;17.02;;;12.30;;
51654;SDS011;37732;53.106;7.030;2022-12-07T00:03:53;18.23;;;9.32;;
51654;SDS011;37732;53.106;7.030;2022-12-07T00:06:29;10.80;;;7.25;;
51654;SDS011;37732;53.106;7.030;2022-12-07T00:09:06;16.55;;;7.03;;
51654;SDS011;37732;53.106;7.030;2022-12-07T00:11:34;14.35;;;6.72;;
51654;SDS011;37732;53.106;7.030;2022-12-07T00:14:01;16.02;;;7.10;;
51654;SDS011;37732;53.106;7.030;2022-12-07T00:16:30;11.80;;;6.80;;
51654;SDS011;37732;53.106;7.030;2022-12-07T00:18:57;13.95;;;6.53;;
51654;SDS011;37732;53.106;7.030;2022-12-07T00:21:24;15.63;;;6.40;;
51654;SDS011;37732;53.106;7.030;2022-12-07T00:23:55;13.50;;;6.15;;
51654;SDS011;37732;53.106;7.030;2022-12-07T00:26:25;12.35;;;5.25;;
51654;SDS011;37732;53.106;7.030;2022-12-07T00:28:54;10.10;;;5.07;;
51654;SDS011;37732;53.106;7.030;2022-12-07T00:31:22;16.70;;;4.90;;
51654;SDS011;37732;53.106;7.030;2022-12-07T00:33:49;13.88;;;4.40;;
51654;SDS011;37732;53.106;7.030;2022-12-07T00:36:16;16.60;;;5.18;;
51654;SDS011;37732;53.106;7.030;2022-12-07T00:38:43;11.52;;;3.92;;
51654;SDS011;37732;53.106;7.030;2022-12-07T00:41:11;13.82;;;4.72;;
51654;SDS011;37732;53.106;7.030;2022-12-07T00:43:37;10.50;;;3.60;;
51654;SDS011;37732;53.106;7.030;2022-12-07T00:46:02;10.63;;;3.80;;
51654;SDS011;37732;53.106;7.030;2022-12-07T00:48:28;9.85;;;3.92;;
51654;SDS011;37732;53.106;7.030;2022-12-07T00:50:54;10.40;;;3.67;;
51654;SDS011;37732;53.106;7.030;2022-12-07T00:53:20;9.20;;;3.55;;
51654;SDS011;37732;53.106;7.030;2022-12-07T00:55:46;9.80;;;2.90;;
51654;SDS011;37732;53.106;7.030;2022-12-07T00:58:12;8.30;;;2.40;;
51654;SDS011;37732;53.106;7.030;2022-12-07T01:00:38;6.43;;;2.25;;
51654;SDS011;37732;53.106;7.030;2022-12-07T01:03:10;8.85;;;2.40;;
51654;SDS011;37732;53.106;7.030;2022-12-07T01:05:37;7.65;;;2.70;;
51654;SDS011;37732;53.106;7.030;2022-12-07T01:08:03;10.77;;;3.05;;
51654;SDS011;37732;53.106;7.030;2022-12-07T01:10:30;4.80;;;2.22;;
51654;SDS011;37732;53.106;7.030;2022-12-07T01:12:56;9.25;;;2.53;;
51654;SDS011;37732;53.106;7.030;2022-12-07T01:15:23;8.02;;;2.58;;
51654;SDS011;37732;53.106;7.030;2022-12-07T01:17:49;7.72;;;2.92;;
51654;SDS011;37732;53.106;7.030;2022-12-07T01:20:15;7.57;;;2.20;;
51654;SDS011;37732;53.106;7.030;2022-12-07T01:22:41;6.70;;;2.08;;
51654;SDS011;37732;53.106;7.030;2022-12-07T01:25:08;8.38;;;2.53;;
51654;SDS011;37732;53.106;7.030;2022-12-07T01:27:34;8.77;;;2.40;;
51654;SDS011;37732;53.106;7.030;2022-12-07T01:30:01;7.63;;;2.30;;
51654;SDS011;37732;53.106;7.030;2022-12-07T01:32:29;8.65;;;2.85;;
51654;SDS011;37732;53.106;7.030;2022-12-07T01:34:54;9.27;;;2.63;;
51654;SDS011;37732;53.106;7.030;2022-12-07T01:37:20;10.23;;;3.00;;
51654;SDS011;37732;53.106;7.030;2022-12-07T01:39:49;9.73;;;3.58;;
51654;SDS011;37732;53.106;7.030;2022-12-07T01:42:15;7.80;;;2.63;;
51654;SDS011;37732;53.106;7.030;2022-12-07T01:45:15;9.13;;;2.80;;
51654;SDS011;37732;53.106;7.030;2022-12-07T01:47:52;8.93;;;2.50;;
51654;SDS011;37732;53.106;7.030;2022-12-07T01:50:20;9.57;;;2.92;;
51654;SDS011;37732;53.106;7.030;2022-12-07T01:52:48;9.98;;;3.58;;
51654;SDS011;37732;53.106;7.030;2022-12-07T01:55:16;14.07;;;3.10;;
51654;SDS011;37732;53.106;7.030;2022-12-07T01:57:43;11.38;;;2.78;;
51654;SDS011;37732;53.106;7.030;2022-12-07T02:05:35;9.90;;;3.58;;
51654;SDS011;37732;53.106;7.030;2022-12-07T02:08:03;13.35;;;4.25;;
51654;SDS011;37732;53.106;7.030;2022-12-07T02:10:30;12.02;;;3.42;;
51654;SDS011;37732;53.106;7.030;2022-12-07T02:13:11;11.48;;;3.70;;
51654;SDS011;37732;53.106;7.030;2022-12-07T02:24:14;5.85;;;2.17;;
51654;SDS011;37732;53.106;7.030;2022-12-07T02:32:40;6.97;;;2.25;;
51654;SDS011;37732;53.106;7.030;2022-12-07T02:45:54;7.85;;;1.85;;
51654;SDS011;37732;53.106;7.030;2022-12-07T02:48:23;9.50;;;2.00;;
51654;SDS011;37732;53.106;7.030;2022-12-07T02:50:53;6.03;;;1.90;;
51654;SDS011;37732;53.106;7.030;2022-12-07T02:56:05;8.05;;;1.50;;
51654;SDS011;37732;53.106;7.030;2022-12-07T03:37:39;6.18;;;2.20;;
51654;SDS011;37732;53.106;7.030;2022-12-07T04:30:04;10.93;;;2.20;;
51654;SDS011;37732;53.106;7.030;2022-12-07T04:50:12;4.60;;;1.67;;
51654;SDS011;37732;53.106;7.030;2022-12-07T04:53:12;7.45;;;1.92;;
51654;SDS011;37732;53.106;7.030;2022-12-07T05:06:20;3.42;;;1.45;;
51654;SDS011;37732;53.106;7.030;2022-12-07T05:08:48;4.57;;;2.03;;
51654;SDS011;37732;53.106;7.030;2022-12-07T05:11:14;8.35;;;1.77;;
51654;SDS011;37732;53.106;7.030;2022-12-07T05:16:37;7.82;;;2.15;;
51654;SDS011;37732;53.106;7.030;2022-12-07T05:19:03;6.93;;;2.10;;
51654;SDS011;37732;53.106;7.030;2022-12-07T05:21:29;7.30;;;2.20;;
51654;SDS011;37732;53.106;7.030;2022-12-07T05:23:55;7.45;;;2.08;;
51654;SDS011;37732;53.106;7.030;2022-12-07T05:26:20;6.18;;;1.88;;
51654;SDS011;37732;53.106;7.030;2022-12-07T05:28:50;7.18;;;1.83;;
51654;SDS011;37732;53.106;7.030;2022-12-07T05:31:16;7.80;;;1.77;;
51654;SDS011;37732;53.106;7.030;2022-12-07T05:33:42;4.88;;;2.13;;
51654;SDS011;37732;53.106;7.030;2022-12-07T05:36:07;7.43;;;1.80;;
51654;SDS011;37732;53.106;7.030;2022-12-07T05:38:33;7.97;;;2.00;;
51654;SDS011;37732;53.106;7.030;2022-12-07T05:41:00;5.15;;;1.50;;
51654;SDS011;37732;53.106;7.030;2022-12-07T05:43:29;6.10;;;1.55;;
51654;SDS011;37732;53.106;7.030;2022-12-07T05:45:57;6.72;;;2.08;;
51654;SDS011;37732;53.106;7.030;2022-12-07T05:48:24;7.80;;;1.65;;
51654;SDS011;37732;53.106;7.030;2022-12-07T05:50:50;5.30;;;1.48;;
51654;SDS011;37732;53.106;7.030;2022-12-07T05:53:16;7.10;;;2.42;;
51654;SDS011;37732;53.106;7.030;2022-12-07T05:55:43;7.30;;;1.60;;
51654;SDS011;37732;53.106;7.030;2022-12-07T05:58:09;5.78;;;1.70;;
51654;SDS011;37732;53.106;7.030;2022-12-07T06:00:56;6.85;;;2.10;;
51654;SDS011;37732;53.106;7.030;2022-12-07T06:03:22;10.27;;;2.55;;
51654;SDS011;37732;53.106;7.030;2022-12-07T06:05:48;6.47;;;2.30;;
51654;SDS011;37732;53.106;7.030;2022-12-07T06:08:14;7.80;;;1.90;;
51654;SDS011;37732;53.106;7.030;2022-12-07T06:10:40;7.03;;;1.63;;
51654;SDS011;37732;53.106;7.030;2022-12-07T06:13:07;9.30;;;2.00;;
51654;SDS011;37732;53.106;7.030;2022-12-07T06:15:36;5.93;;;1.80;;
51654;SDS011;37732;53.106;7.030;2022-12-07T06:18:02;5.03;;;2.00;;
51654;SDS011;37732;53.106;7.030;2022-12-07T06:20:28;7.63;;;2.22;;
51654;SDS011;37732;53.106;7.030;2022-12-07T06:22:54;15.35;;;4.38;;
51654;SDS011;37732;53.106;7.030;2022-12-07T06:25:19;8.43;;;4.32;;
51654;SDS011;37732;53.106;7.030;2022-12-07T06:27:45;9.57;;;4.50;;
51654;SDS011;37732;53.106;7.030;2022-12-07T06:30:10;12.18;;;4.88;;
51654;SDS011;37732;53.106;7.030;2022-12-07T06:32:36;8.70;;;2.88;;
51654;SDS011;37732;53.106;7.030;2022-12-07T06:35:02;6.88;;;2.50;;
51654;SDS011;37732;53.106;7.030;2022-12-07T06:37:28;6.88;;;2.40;;
51654;SDS011;37732;53.106;7.030;2022-12-07T06:39:57;7.32;;;2.20;;
51654;SDS011;37732;53.106;7.030;2022-12-07T06:42:23;12.63;;;4.28;;
51654;SDS011;37732;53.106;7.030;2022-12-07T06:44:48;15.57;;;6.30;;
51654;SDS011;37732;53.106;7.030;2022-12-07T06:47:14;9.27;;;3.88;;
51654;SDS011;37732;53.106;7.030;2022-12-07T06:49:39;12.48;;;4.38;;
51654;SDS011;37732;53.106;7.030;2022-12-07T06:52:05;7.75;;;3.40;;
51654;SDS011;37732;53.106;7.030;2022-12-07T06:54:31;12.20;;;3.45;;
51654;SDS011;37732;53.106;7.030;2022-12-07T06:56:56;8.93;;;2.50;;
51654;SDS011;37732;53.106;7.030;2022-12-07T06:59:22;10.68;;;2.63;;
51654;SDS011;37732;53.106;7.030;2022-12-07T07:01:48;11.73;;;3.20;;
51654;SDS011;37732;53.106;7.030;2022-12-07T07:04:14;7.60;;;2.47;;
51654;SDS011;37732;53.106;7.030;2022-12-07T07:06:40;10.52;;;2.70;;
51654;SDS011;37732;53.106;7.030;2022-12-07T07:09:06;9.20;;;3.20;;
51654;SDS011;37732;53.106;7.030;2022-12-07T07:11:32;16.65;;;3.22;;
51654;SDS011;37732;53.106;7.030;2022-12-07T07:13:57;11.52;;;2.72;;
51654;SDS011;37732;53.106;7.030;2022-12-07T07:16:27;21.13;;;3.13;;
51654;SDS011;37732;53.106;7.030;2022-12-07T07:18:56;12.88;;;4.07;;
51654;SDS011;37732;53.106;7.030;2022-12-07T07:21:21;4.40;;;2.17;;
51654;SDS011;37732;53.106;7.030;2022-12-07T07:23:47;11.45;;;3.28;;
51654;SDS011;37732;53.106;7.030;2022-12-07T07:26:13;8.40;;;2.75;;
51654;SDS011;37732;53.106;7.030;2022-12-07T07:28:42;9.75;;;3.15;;
51654;SDS011;37732;53.106;7.030;2022-12-07T07:31:08;13.27;;;3.78;;
51654;SDS011;37732;53.106;7.030;2022-12-07T07:33:33;10.88;;;2.88;;
51654;SDS011;37732;53.106;7.030;2022-12-07T07:35:59;9.93;;;2.70;;
51654;SDS011;37732;53.106;7.030;2022-12-07T07:38:24;8.05;;;2.83;;
51654;SDS011;37732;53.106;7.030;2022-12-07T07:40:50;9.07;;;2.95;;
51654;SDS011;37732;53.106;7.030;2022-12-07T07:43:16;10.52;;;2.78;;
51654;SDS011;37732;53.106;7.030;2022-12-07T07:45:41;7.90;;;2.70;;
51654;SDS011;37732;53.106;7.030;2022-12-07T07:48:07;12.73;;;3.35;;
51654;SDS011;37732;53.106;7.030;2022-12-07T07:50:32;12.65;;;3.78;;
51654;SDS011;37732;53.106;7.030;2022-12-07T07:52:58;11.10;;;3.58;;
51654;SDS011;37732;53.106;7.030;2022-12-07T07:55:24;10.15;;;3.35;;
51654;SDS011;37732;53.106;7.030;2022-12-07T07:57:49;10.10;;;2.78;;
51654;SDS011;37732;53.106;7.030;2022-12-07T08:00:15;12.05;;;2.85;;
51654;SDS011;37732;53.106;7.030;2022-12-07T08:02:41;9.88;;;3.88;;
51654;SDS011;37732;53.106;7.030;2022-12-07T08:05:08;9.43;;;3.05;;
51654;SDS011;37732;53.106;7.030;2022-12-07T08:07:35;7.40;;;2.50;;
51654;SDS011;37732;53.106;7.030;2022-12-07T08:10:00;10.55;;;3.28;;
51654;SDS011;37732;53.106;7.030;2022-12-07T08:12:26;6.93;;;2.50;;
51654;SDS011;37732;53.106;7.030;2022-12-07T08:14:52;9.85;;;3.03;;
51654;SDS011;37732;53.106;7.030;2022-12-07T08:17:17;8.43;;;2.30;;
51654;SDS011;37732;53.106;7.030;2022-12-07T08:19:43;9.30;;;2.38;;
51654;SDS011;37732;53.106;7.030;2022-12-07T08:22:09;8.52;;;2.33;;
51654;SDS011;37732;53.106;7.030;2022-12-07T08:24:35;9.13;;;2.42;;
51654;SDS011;37732;53.106;7.030;2022-12-07T08:27:01;7.35;;;2.88;;
51654;SDS011;37732;53.106;7.030;2022-12-07T08:29:27;6.28;;;1.90;;
51654;SDS011;37732;53.106;7.030;2022-12-07T08:31:52;7.38;;;2.15;;
51654;SDS011;37732;53.106;7.030;2022-12-07T08:34:18;5.70;;;2.05;;
51654;SDS011;37732;53.106;7.030;2022-12-07T08:36:44;7.82;;;2.90;;
51654;SDS011;37732;53.106;7.030;2022-12-07T08:39:09;11.10;;;2.72;;
51654;SDS011;37732;53.106;7.030;2022-12-07T08:41:35;8.10;;;2.58;;
51654;SDS011;37732;53.106;7.030;2022-12-07T08:44:01;6.00;;;2.40;;
51654;SDS011;37732;53.106;7.030;2022-12-07T08:49:26;7.60;;;2.80;;
51654;SDS011;37732;53.106;7.030;2022-12-07T08:51:56;8.45;;;3.20;;
51654;SDS011;37732;53.106;7.030;2022-12-07T08:54:22;11.45;;;3.20;;
51654;SDS011;37732;53.106;7.030;2022-12-07T08:56:48;9.15;;;3.47;;
51654;SDS011;37732;53.106;7.030;2022-12-07T08:59:17;12.57;;;5.40;;
51654;SDS011;37732;53.106;7.030;2022-12-07T09:01:44;13.43;;;5.97;;
51654;SDS011;37732;53.106;7.030;2022-12-07T09:04:10;12.23;;;4.13;;
51654;SDS011;37732;53.106;7.030;2022-12-07T09:06:36;9.30;;;4.00;;
51654;SDS011;37732;53.106;7.030;2022-12-07T09:09:02;7.15;;;3.33;;
51654;SDS011;37732;53.106;7.030;2022-12-07T09:11:28;7.82;;;2.60;;
51654;SDS011;37732;53.106;7.030;2022-12-07T09:13:54;6.80;;;3.60;;
51654;SDS011;37732;53.106;7.030;2022-12-07T09:16:20;8.77;;;3.33;;
51654;SDS011;37732;53.106;7.030;2022-12-07T09:18:47;11.73;;;3.42;;
51654;SDS011;37732;53.106;7.030;2022-12-07T09:21:12;7.63;;;3.78;;
51654;SDS011;37732;53.106;7.030;2022-12-07T09:23:38;7.75;;;3.00;;
51654;SDS011;37732;53.106;7.030;2022-12-07T09:26:03;14.93;;;3.88;;
51654;SDS011;37732;53.106;7.030;2022-12-07T09:28:30;7.90;;;2.63;;
51654;SDS011;37732;53.106;7.030;2022-12-07T09:30:57;10.68;;;3.25;;
51654;SDS011;37732;53.106;7.030;2022-12-07T09:33:23;13.48;;;3.75;;
51654;SDS011;37732;53.106;7.030;2022-12-07T09:38:18;10.13;;;2.65;;
51654;SDS011;37732;53.106;7.030;2022-12-07T09:40:45;8.48;;;2.83;;
51654;SDS011;37732;53.106;7.030;2022-12-07T09:43:19;8.75;;;2.75;;
51654;SDS011;37732;53.106;7.030;2022-12-07T09:45:48;5.95;;;2.30;;
51654;SDS011;37732;53.106;7.030;2022-12-07T09:48:31;11.82;;;2.92;;
51654;SDS011;37732;53.106;7.030;2022-12-07T09:50:59;11.05;;;3.38;;
51654;SDS011;37732;53.106;7.030;2022-12-07T09:53:35;11.35;;;4.22;;
51654;SDS011;37732;53.106;7.030;2022-12-07T09:56:03;13.00;;;4.57;;
51654;SDS011;37732;53.106;7.030;2022-12-07T09:58:30;15.70;;;4.65;;
51654;SDS011;37732;53.106;7.030;2022-12-07T10:01:05;13.43;;;4.30;;
51654;SDS011;37732;53.106;7.030;2022-12-07T10:06:18;10.10;;;3.75;;
51654;SDS011;37732;53.106;7.030;2022-12-07T10:08:44;11.43;;;4.28;;
51654;SDS011;37732;53.106;7.030;2022-12-07T10:11:10;11.85;;;3.25;;
51654;SDS011;37732;53.106;7.030;2022-12-07T10:18:50;12.43;;;4.28;;
51654;SDS011;37732;53.106;7.030;2022-12-07T10:21:17;11.77;;;3.60;;
51654;SDS011;37732;53.106;7.030;2022-12-07T10:26:48;8.13;;;3.00;;
51654;SDS011;37732;53.106;7.030;2022-12-07T10:37:46;11.75;;;3.20;;
51654;SDS011;37732;53.106;7.030;2022-12-07T10:40:29;8.10;;;3.28;;
51654;SDS011;37732;53.106;7.030;2022-12-07T10:48:24;10.45;;;2.95;;
51654;SDS011;37732;53.106;7.030;2022-12-07T10:51:16;7.72;;;3.10;;
51654;SDS011;37732;53.106;7.030;2022-12-07T10:57:00;8.88;;;3.10;;
51654;SDS011;37732;53.106;7.030;2022-12-07T11:03:17;10.18;;;3.60;;
51654;SDS011;37732;53.106;7.030;2022-12-07T11:05:42;9.52;;;3.10;;
51654;SDS011;37732;53.106;7.030;2022-12-07T11:11:09;9.98;;;3.97;;
51654;SDS011;37732;53.106;7.030;2022-12-07T11:13:56;10.82;;;3.22;;
51654;SDS011;37732;53.106;7.030;2022-12-07T11:19:31;11.65;;;3.85;;
51654;SDS011;37732;53.106;7.030;2022-12-07T11:25:31;7.88;;;3.40;;
51654;SDS011;37732;53.106;7.030;2022-12-07T11:33:16;10.82;;;3.55;;
51654;SDS011;37732;53.106;7.030;2022-12-07T11:38:53;13.18;;;3.38;;
51654;SDS011;37732;53.106;7.030;2022-12-07T11:41:23;10.38;;;4.18;;
51654;SDS011;37732;53.106;7.030;2022-12-07T11:44:07;9.98;;;3.40;;
51654;SDS011;37732;53.106;7.030;2022-12-07T11:46:43;10.00;;;3.67;;
51654;SDS011;37732;53.106;7.030;2022-12-07T11:49:17;6.43;;;3.05;;
51654;SDS011;37732;53.106;7.030;2022-12-07T11:51:49;8.32;;;2.95;;
51654;SDS011;37732;53.106;7.030;2022-12-07T11:54:19;6.57;;;2.63;;
51654;SDS011;37732;53.106;7.030;2022-12-07T11:56:49;13.50;;;2.70;;
51654;SDS011;37732;53.106;7.030;2022-12-07T11:59:19;8.50;;;2.85;;
51654;SDS011;37732;53.106;7.030;2022-12-07T12:04:47;10.10;;;2.58;;
51654;SDS011;37732;53.106;7.030;2022-12-07T12:07:22;8.32;;;2.58;;
51654;SDS011;37732;53.106;7.030;2022-12-07T12:09:50;6.93;;;2.25;;
51654;SDS011;37732;53.106;7.030;2022-12-07T12:18:05;5.03;;;1.90;;
51654;SDS011;37732;53.106;7.030;2022-12-07T12:20:43;7.68;;;2.47;;
51654;SDS011;37732;53.106;7.030;2022-12-07T12:26:04;10.18;;;2.60;;
51654;SDS011;37732;53.106;7.030;2022-12-07T12:28:37;8.38;;;2.72;;
51654;SDS011;37732;53.106;7.030;2022-12-07T12:31:15;7.97;;;3.03;;
51654;SDS011;37732;53.106;7.030;2022-12-07T12:36:25;6.43;;;2.40;;
51654;SDS011;37732;53.106;7.030;2022-12-07T12:44:01;2.67;;;1.70;;
51654;SDS011;37732;53.106;7.030;2022-12-07T12:49:16;4.63;;;1.70;;
51654;SDS011;37732;53.106;7.030;2022-12-07T12:51:59;7.72;;;2.30;;
51654;SDS011;37732;53.106;7.030;2022-12-07T12:57:32;5.72;;;2.47;;
51654;SDS011;37732;53.106;7.030;2022-12-07T12:59:59;6.35;;;2.33;;
51654;SDS011;37732;53.106;7.030;2022-12-07T13:15:33;4.88;;;2.20;;
51654;SDS011;37732;53.106;7.030;2022-12-07T13:18:04;5.80;;;2.40;;
51654;SDS011;37732;53.106;7.030;2022-12-07T13:20:51;4.50;;;1.70;;
51654;SDS011;37732;53.106;7.030;2022-12-07T13:23:19;10.48;;;2.05;;
51654;SDS011;37732;53.106;7.030;2022-12-07T13:25:54;10.65;;;2.75;;
51654;SDS011;37732;53.106;7.030;2022-12-07T13:28:31;7.15;;;2.65;;
51654;SDS011;37732;53.106;7.030;2022-12-07T13:31:23;7.20;;;2.30;;
51654;SDS011;37732;53.106;7.030;2022-12-07T13:34:01;7.60;;;3.03;;
51654;SDS011;37732;53.106;7.030;2022-12-07T13:36:33;10.68;;;2.72;;
51654;SDS011;37732;53.106;7.030;2022-12-07T13:41:43;9.77;;;3.30;;
51654;SDS011;37732;53.106;7.030;2022-12-07T13:44:09;6.53;;;2.83;;
51654;SDS011;37732;53.106;7.030;2022-12-07T13:46:43;10.65;;;3.50;;
51654;SDS011;37732;53.106;7.030;2022-12-07T13:49:18;9.75;;;2.60;;
51654;SDS011;37732;53.106;7.030;2022-12-07T13:51:44;8.15;;;2.60;;
51654;SDS011;37732;53.106;7.030;2022-12-07T13:54:11;7.95;;;2.67;;
51654;SDS011;37732;53.106;7.030;2022-12-07T13:56:38;7.95;;;2.38;;
51654;SDS011;37732;53.106;7.030;2022-12-07T13:59:12;6.82;;;2.15;;
51654;SDS011;37732;53.106;7.030;2022-12-07T14:01:41;8.55;;;1.73;;
51654;SDS011;37732;53.106;7.030;2022-12-07T14:04:16;6.22;;;1.92;;
51654;SDS011;37732;53.106;7.030;2022-12-07T14:06:56;3.80;;;1.67;;
51654;SDS011;37732;53.106;7.030;2022-12-07T14:09:23;4.22;;;1.92;;
51654;SDS011;37732;53.106;7.030;2022-12-07T14:11:52;7.55;;;2.25;;
51654;SDS011;37732;53.106;7.030;2022-12-07T14:14:31;7.65;;;4.95;;
51654;SDS011;37732;53.106;7.030;2022-12-07T14:17:02;9.98;;;6.93;;
51654;SDS011;37732;53.106;7.030;2022-12-07T14:19:40;9.73;;;4.18;;
51654;SDS011;37732;53.106;7.030;2022-12-07T14:22:33;8.50;;;2.53;;
51654;SDS011;37732;53.106;7.030;2022-12-07T14:27:38;9.10;;;2.25;;
51654;SDS011;37732;53.106;7.030;2022-12-07T14:30:05;9.68;;;2.40;;
51654;SDS011;37732;53.106;7.030;2022-12-07T14:32:31;4.80;;;1.67;;
51654;SDS011;37732;53.106;7.030;2022-12-07T14:35:01;10.25;;;5.05;;
51654;SDS011;37732;53.106;7.030;2022-12-07T14:37:35;8.85;;;5.10;;
51654;SDS011;37732;53.106;7.030;2022-12-07T14:40:02;5.05;;;3.17;;
51654;SDS011;37732;53.106;7.030;2022-12-07T14:42:28;5.28;;;2.50;;
51654;SDS011;37732;53.106;7.030;2022-12-07T14:44:56;4.43;;;1.85;;
51654;SDS011;37732;53.106;7.030;2022-12-07T14:47:23;3.17;;;1.40;;
51654;SDS011;37732;53.106;7.030;2022-12-07T14:49:49;4.28;;;1.70;;
51654;SDS011;37732;53.106;7.030;2022-12-07T14:52:17;4.22;;;2.13;;
51654;SDS011;37732;53.106;7.030;2022-12-07T14:54:51;5.45;;;3.13;;
51654;SDS011;37732;53.106;7.030;2022-12-07T14:57:17;6.32;;;4.43;;
51654;SDS011;37732;53.106;7.030;2022-12-07T14:59:43;8.35;;;7.57;;
51654;SDS011;37732;53.106;7.030;2022-12-07T15:02:10;11.55;;;9.70;;
51654;SDS011;37732;53.106;7.030;2022-12-07T15:04:37;8.20;;;5.93;;
51654;SDS011;37732;53.106;7.030;2022-12-07T15:07:04;8.48;;;3.67;;
51654;SDS011;37732;53.106;7.030;2022-12-07T15:09:33;5.03;;;1.98;;
51654;SDS011;37732;53.106;7.030;2022-12-07T15:11:59;8.45;;;1.92;;
51654;SDS011;37732;53.106;7.030;2022-12-07T15:14:25;7.18;;;1.42;;
51654;SDS011;37732;53.106;7.030;2022-12-07T15:16:50;3.13;;;1.45;;
51654;SDS011;37732;53.106;7.030;2022-12-07T15:19:17;5.20;;;1.80;;
51654;SDS011;37732;53.106;7.030;2022-12-07T15:21:48;5.90;;;2.20;;
51654;SDS011;37732;53.106;7.030;2022-12-07T15:24:13;5.63;;;2.25;;
51654;SDS011;37732;53.106;7.030;2022-12-07T15:26:39;4.75;;;2.10;;
51654;SDS011;37732;53.106;7.030;2022-12-07T15:29:05;3.83;;;1.80;;
51654;SDS011;37732;53.106;7.030;2022-12-07T15:31:32;6.45;;;1.70;;
51654;SDS011;37732;53.106;7.030;2022-12-07T15:33:59;3.60;;;1.50;;
51654;SDS011;37732;53.106;7.030;2022-12-07T15:36:26;4.43;;;2.10;;
51654;SDS011;37732;53.106;7.030;2022-12-07T15:38:53;4.70;;;2.08;;
51654;SDS011;37732;53.106;7.030;2022-12-07T15:41:20;6.13;;;2.55;;
51654;SDS011;37732;53.106;7.030;2022-12-07T15:43:46;7.07;;;2.35;;
51654;SDS011;37732;53.106;7.030;2022-12-07T15:46:30;6.85;;;1.73;;
51654;SDS011;37732;53.106;7.030;2022-12-07T15:48:57;6.15;;;2.00;;
51654;SDS011;37732;53.106;7.030;2022-12-07T15:51:23;7.65;;;2.28;;
51654;SDS011;37732;53.106;7.030;2022-12-07T15:53:49;5.03;;;2.63;;
51654;SDS011;37732;53.106;7.030;2022-12-07T15:56:14;9.98;;;4.28;;
51654;SDS011;37732;53.106;7.030;2022-12-07T15:58:40;8.48;;;4.40;;
51654;SDS011;37732;53.106;7.030;2022-12-07T16:01:12;9.38;;;3.63;;
51654;SDS011;37732;53.106;7.030;2022-12-07T16:03:39;8.82;;;3.85;;
51654;SDS011;37732;53.106;7.030;2022-12-07T16:06:05;7.03;;;3.70;;
51654;SDS011;37732;53.106;7.030;2022-12-07T16:08:31;7.53;;;3.05;;
51654;SDS011;37732;53.106;7.030;2022-12-07T16:10:57;5.60;;;3.15;;
51654;SDS011;37732;53.106;7.030;2022-12-07T16:13:22;5.93;;;3.05;;
51654;SDS011;37732;53.106;7.030;2022-12-07T16:15:48;10.40;;;2.78;;
51654;SDS011;37732;53.106;7.030;2022-12-07T16:18:14;6.82;;;2.50;;
51654;SDS011;37732;53.106;7.030;2022-12-07T16:20:41;4.00;;;1.90;;
51654;SDS011;37732;53.106;7.030;2022-12-07T16:23:12;5.35;;;1.95;;
51654;SDS011;37732;53.106;7.030;2022-12-07T16:25:38;5.63;;;1.92;;
51654;SDS011;37732;53.106;7.030;2022-12-07T16:28:04;8.38;;;2.20;;
51654;SDS011;37732;53.106;7.030;2022-12-07T16:30:33;5.88;;;2.05;;
51654;SDS011;37732;53.106;7.030;2022-12-07T16:33:01;6.07;;;2.75;;
51654;SDS011;37732;53.106;7.030;2022-12-07T16:35:27;6.55;;;3.08;;
51654;SDS011;37732;53.106;7.030;2022-12-07T16:37:53;7.25;;;4.45;;
51654;SDS011;37732;53.106;7.030;2022-12-07T16:40:19;8.77;;;4.80;;
51654;SDS011;37732;53.106;7.030;2022-12-07T16:42:44;9.15;;;4.97;;
51654;SDS011;37732;53.106;7.030;2022-12-07T16:45:11;8.32;;;5.10;;
51654;SDS011;37732;53.106;7.030;2022-12-07T16:47:38;9.75;;;4.00;;
51654;SDS011;37732;53.106;7.030;2022-12-07T16:50:06;8.38;;;3.95;;
51654;SDS011;37732;53.106;7.030;2022-12-07T16:52:32;7.20;;;3.95;;
51654;SDS011;37732;53.106;7.030;2022-12-07T16:54:58;8.38;;;2.83;;
51654;SDS011;37732;53.106;7.030;2022-12-07T16:57:27;6.30;;;2.78;;
51654;SDS011;37732;53.106;7.030;2022-12-07T17:00:20;10.18;;;6.50;;
51654;SDS011;37732;53.106;7.030;2022-12-07T17:02:46;9.43;;;4.82;;
51654;SDS011;37732;53.106;7.030;2022-12-07T17:05:11;9.35;;;4.38;;
51654;SDS011;37732;53.106;7.030;2022-12-07T17:07:37;8.75;;;5.25;;
51654;SDS011;37732;53.106;7.030;2022-12-07T17:10:03;8.20;;;5.50;;
51654;SDS011;37732;53.106;7.030;2022-12-07T17:12:29;7.93;;;6.10;;
51654;SDS011;37732;53.106;7.030;2022-12-07T17:14:55;9.45;;;7.18;;
51654;SDS011;37732;53.106;7.030;2022-12-07T17:17:39;9.63;;;6.78;;
51654;SDS011;37732;53.106;7.030;2022-12-07T17:20:05;11.68;;;6.80;;
51654;SDS011;37732;53.106;7.030;2022-12-07T17:22:31;7.60;;;5.90;;
51654;SDS011;37732;53.106;7.030;2022-12-07T17:24:57;11.00;;;6.53;;
51654;SDS011;37732;53.106;7.030;2022-12-07T17:27:23;6.78;;;5.35;;
51654;SDS011;37732;53.106;7.030;2022-12-07T17:29:48;6.57;;;4.10;;
51654;SDS011;37732;53.106;7.030;2022-12-07T17:32:14;7.82;;;3.83;;
51654;SDS011;37732;53.106;7.030;2022-12-07T17:34:40;7.45;;;3.60;;
51654;SDS011;37732;53.106;7.030;2022-12-07T17:37:06;6.50;;;2.70;;
51654;SDS011;37732;53.106;7.030;2022-12-07T17:39:33;6.13;;;2.55;;
51654;SDS011;37732;53.106;7.030;2022-12-07T17:41:59;5.82;;;2.38;;
51654;SDS011;37732;53.106;7.030;2022-12-07T17:44:44;6.13;;;2.13;;
51654;SDS011;37732;53.106;7.030;2022-12-07T17:47:10;4.68;;;2.25;;
51654;SDS011;37732;53.106;7.030;2022-12-07T17:49:36;5.72;;;2.60;;
51654;SDS011;37732;53.106;7.030;2022-12-07T17:52:02;6.43;;;2.95;;
51654;SDS011;37732;53.106;7.030;2022-12-07T17:54:46;4.57;;;2.40;;
51654;SDS011;37732;53.106;7.030;2022-12-07T17:57:12;5.57;;;2.30;;
51654;SDS011;37732;53.106;7.030;2022-12-07T17:59:38;3.80;;;1.75;;
51654;SDS011;37732;53.106;7.030;2022-12-07T18:02:03;3.45;;;1.77;;
51654;SDS011;37732;53.106;7.030;2022-12-07T18:04:29;4.30;;;1.70;;
51654;SDS011;37732;53.106;7.030;2022-12-07T18:06:55;3.88;;;1.95;;
51654;SDS011;37732;53.106;7.030;2022-12-07T18:09:21;5.25;;;1.90;;
51654;SDS011;37732;53.106;7.030;2022-12-07T18:11:47;4.57;;;1.70;;
51654;SDS011;37732;53.106;7.030;2022-12-07T18:14:13;3.55;;;1.90;;
51654;SDS011;37732;53.106;7.030;2022-12-07T18:16:38;4.40;;;2.08;;
51654;SDS011;37732;53.106;7.030;2022-12-07T18:19:05;8.02;;;2.30;;
51654;SDS011;37732;53.106;7.030;2022-12-07T18:21:33;5.97;;;2.42;;
51654;SDS011;37732;53.106;7.030;2022-12-07T18:24:00;6.80;;;2.97;;
51654;SDS011;37732;53.106;7.030;2022-12-07T18:26:29;5.40;;;2.75;;
51654;SDS011;37732;53.106;7.030;2022-12-07T18:28:59;5.43;;;2.78;;
51654;SDS011;37732;53.106;7.030;2022-12-07T18:31:25;5.28;;;3.00;;
51654;SDS011;37732;53.106;7.030;2022-12-07T18:33:52;6.10;;;3.50;;
51654;SDS011;37732;53.106;7.030;2022-12-07T18:36:20;7.63;;;3.20;;
51654;SDS011;37732;53.106;7.030;2022-12-07T18:38:47;6.45;;;3.45;;
51654;SDS011;37732;53.106;7.030;2022-12-07T18:41:13;6.78;;;3.55;;
51654;SDS011;37732;53.106;7.030;2022-12-07T18:43:40;6.55;;;3.22;;
51654;SDS011;37732;53.106;7.030;2022-12-07T18:46:13;13.73;;;4.05;;
51654;SDS011;37732;53.106;7.030;2022-12-07T18:48:42;7.15;;;4.05;;
51654;SDS011;37732;53.106;7.030;2022-12-07T18:51:10;7.10;;;3.17;;
51654;SDS011;37732;53.106;7.030;2022-12-07T18:53:37;4.72;;;2.75;;
51654;SDS011;37732;53.106;7.030;2022-12-07T18:56:06;5.88;;;3.17;;
51654;SDS011;37732;53.106;7.030;2022-12-07T18:58:35;7.75;;;2.90;;
51654;SDS011;37732;53.106;7.030;2022-12-07T19:01:03;5.15;;;3.13;;
51654;SDS011;37732;53.106;7.030;2022-12-07T19:03:28;6.20;;;2.85;;